sensor_id;sensor_type;location;lat;lon;timestamp;P1;durP1;ratioP1;P2;durP2;ratioP2
21206;SDS011;10761;48.532;8.026;2023-07-31T00:00:05;5.93;;;1.55;;
21206;SDS011;10761;48.532;8.026;2023-07-31T00:02:31;4.55;;;1.48;;
21206;SDS011;10761;48.532;8.026;2023-07-31T00:04:57;4.38;;;1.40;;
21206;SDS011;10761;48.532;8.026;2023-07-31T00:07:23;4.25;;;1.42;;
21206;SDS011;10761;48.532;8.026;2023-07-31T00:09:48;5.00;;;1.60;;
21206;SDS011;10761;48.532;8.026;2023-07-31T00:12:14;6.85;;;1.60;;
21206;SDS011;10761;48.532;8.026;2023-07-31T00:14:39;6.18;;;1.83;;
21206;SDS011;10761;48.532;8.026;2023-07-31T00:17:05;3.00;;;1.20;;
21206;SDS011;10761;48.532;8.026;2023-07-31T00:19:31;4.95;;;1.70;;
21206;SDS011;10761;48.532;8.026;2023-07-31T00:21:56;3.92;;;1.63;;
21206;SDS011;10761;48.532;8.026;2023-07-31T00:24:22;4.97;;;1.40;;
21206;SDS011;10761;48.532;8.026;2023-07-31T00:26:47;4.30;;;1.85;;
21206;SDS011;10761;48.532;8.026;2023-07-31T00:29:13;4.25;;;1.42;;
21206;SDS011;10761;48.532;8.026;2023-07-31T00:31:38;3.92;;;1.52;;
21206;SDS011;10761;48.532;8.026;2023-07-31T00:34:04;4.40;;;1.50;;
21206;SDS011;10761;48.532;8.026;2023-07-31T00:36:29;4.65;;;1.58;;
21206;SDS011;10761;48.532;8.026;2023-07-31T00:38:55;6.53;;;1.67;;
21206;SDS011;10761;48.532;8.026;2023-07-31T00:41:20;3.03;;;1.55;;
21206;SDS011;10761;48.532;8.026;2023-07-31T00:43:47;5.57;;;1.35;;
21206;SDS011;10761;48.532;8.026;2023-07-31T00:46:13;5.00;;;1.58;;
21206;SDS011;10761;48.532;8.026;2023-07-31T00:48:38;6.93;;;1.80;;
21206;SDS011;10761;48.532;8.026;2023-07-31T00:51:04;4.57;;;1.20;;
21206;SDS011;10761;48.532;8.026;2023-07-31T00:53:30;3.83;;;1.70;;
21206;SDS011;10761;48.532;8.026;2023-07-31T00:55:56;2.67;;;1.40;;
21206;SDS011;10761;48.532;8.026;2023-07-31T00:58:23;7.85;;;2.13;;
21206;SDS011;10761;48.532;8.026;2023-07-31T01:00:48;5.00;;;1.52;;
21206;SDS011;10761;48.532;8.026;2023-07-31T01:03:15;4.47;;;1.52;;
21206;SDS011;10761;48.532;8.026;2023-07-31T01:06:00;5.60;;;1.50;;
21206;SDS011;10761;48.532;8.026;2023-07-31T01:09:03;5.60;;;1.77;;
21206;SDS011;10761;48.532;8.026;2023-07-31T01:11:46;3.75;;;1.70;;
21206;SDS011;10761;48.532;8.026;2023-07-31T01:14:17;4.90;;;1.77;;
21206;SDS011;10761;48.532;8.026;2023-07-31T01:16:42;6.20;;;1.30;;
21206;SDS011;10761;48.532;8.026;2023-07-31T01:19:08;3.58;;;1.60;;
21206;SDS011;10761;48.532;8.026;2023-07-31T01:24:07;3.97;;;1.60;;
21206;SDS011;10761;48.532;8.026;2023-07-31T01:26:47;5.80;;;1.50;;
21206;SDS011;10761;48.532;8.026;2023-07-31T01:29:42;5.47;;;1.60;;
21206;SDS011;10761;48.532;8.026;2023-07-31T01:32:20;4.38;;;1.60;;
21206;SDS011;10761;48.532;8.026;2023-07-31T01:34:47;4.95;;;1.30;;
21206;SDS011;10761;48.532;8.026;2023-07-31T01:37:13;4.50;;;1.48;;
21206;SDS011;10761;48.532;8.026;2023-07-31T01:39:39;3.88;;;1.80;;
21206;SDS011;10761;48.532;8.026;2023-07-31T01:42:04;4.38;;;1.92;;
21206;SDS011;10761;48.532;8.026;2023-07-31T01:44:30;3.00;;;1.45;;
21206;SDS011;10761;48.532;8.026;2023-07-31T01:46:56;5.25;;;1.90;;
21206;SDS011;10761;48.532;8.026;2023-07-31T01:49:21;4.03;;;1.52;;
21206;SDS011;10761;48.532;8.026;2023-07-31T01:51:47;3.88;;;1.60;;
21206;SDS011;10761;48.532;8.026;2023-07-31T01:54:12;3.38;;;1.60;;
21206;SDS011;10761;48.532;8.026;2023-07-31T01:56:38;3.95;;;1.50;;
21206;SDS011;10761;48.532;8.026;2023-07-31T01:59:03;5.22;;;1.60;;
21206;SDS011;10761;48.532;8.026;2023-07-31T02:01:29;3.22;;;1.40;;
21206;SDS011;10761;48.532;8.026;2023-07-31T02:03:55;3.97;;;1.45;;
21206;SDS011;10761;48.532;8.026;2023-07-31T02:06:20;4.88;;;1.67;;
21206;SDS011;10761;48.532;8.026;2023-07-31T02:08:47;3.55;;;1.42;;
21206;SDS011;10761;48.532;8.026;2023-07-31T02:11:13;2.25;;;1.40;;
21206;SDS011;10761;48.532;8.026;2023-07-31T02:13:38;4.18;;;1.48;;
21206;SDS011;10761;48.532;8.026;2023-07-31T02:16:04;2.95;;;1.70;;
21206;SDS011;10761;48.532;8.026;2023-07-31T02:18:29;3.42;;;1.80;;
21206;SDS011;10761;48.532;8.026;2023-07-31T02:20:55;4.95;;;1.50;;
21206;SDS011;10761;48.532;8.026;2023-07-31T02:23:21;6.00;;;1.70;;
21206;SDS011;10761;48.532;8.026;2023-07-31T02:25:46;6.40;;;2.33;;
21206;SDS011;10761;48.532;8.026;2023-07-31T02:28:12;3.95;;;1.40;;
21206;SDS011;10761;48.532;8.026;2023-07-31T02:30:38;3.70;;;1.50;;
21206;SDS011;10761;48.532;8.026;2023-07-31T02:33:04;3.83;;;1.50;;
21206;SDS011;10761;48.532;8.026;2023-07-31T02:35:30;4.30;;;1.80;;
21206;SDS011;10761;48.532;8.026;2023-07-31T02:37:56;3.08;;;1.52;;
21206;SDS011;10761;48.532;8.026;2023-07-31T02:40:21;3.22;;;1.42;;
21206;SDS011;10761;48.532;8.026;2023-07-31T02:42:47;7.25;;;1.80;;
21206;SDS011;10761;48.532;8.026;2023-07-31T02:45:12;3.97;;;1.63;;
21206;SDS011;10761;48.532;8.026;2023-07-31T02:47:38;5.60;;;1.60;;
21206;SDS011;10761;48.532;8.026;2023-07-31T02:50:04;4.30;;;1.67;;
21206;SDS011;10761;48.532;8.026;2023-07-31T02:52:30;3.67;;;1.90;;
21206;SDS011;10761;48.532;8.026;2023-07-31T02:54:56;8.20;;;1.52;;
21206;SDS011;10761;48.532;8.026;2023-07-31T02:57:22;6.93;;;1.80;;
21206;SDS011;10761;48.532;8.026;2023-07-31T02:59:48;4.22;;;1.73;;
21206;SDS011;10761;48.532;8.026;2023-07-31T03:02:13;4.15;;;1.63;;
21206;SDS011;10761;48.532;8.026;2023-07-31T03:04:39;9.88;;;1.92;;
21206;SDS011;10761;48.532;8.026;2023-07-31T03:07:05;6.28;;;2.10;;
21206;SDS011;10761;48.532;8.026;2023-07-31T03:09:31;5.88;;;1.70;;
21206;SDS011;10761;48.532;8.026;2023-07-31T03:11:56;5.82;;;1.88;;
21206;SDS011;10761;48.532;8.026;2023-07-31T03:14:22;4.68;;;1.65;;
21206;SDS011;10761;48.532;8.026;2023-07-31T03:16:48;5.68;;;1.67;;
21206;SDS011;10761;48.532;8.026;2023-07-31T03:19:14;4.72;;;1.88;;
21206;SDS011;10761;48.532;8.026;2023-07-31T03:21:40;4.30;;;1.60;;
21206;SDS011;10761;48.532;8.026;2023-07-31T03:24:06;5.15;;;1.90;;
21206;SDS011;10761;48.532;8.026;2023-07-31T03:26:32;6.88;;;1.90;;
21206;SDS011;10761;48.532;8.026;2023-07-31T03:28:57;4.47;;;1.77;;
21206;SDS011;10761;48.532;8.026;2023-07-31T03:31:23;4.43;;;1.88;;
21206;SDS011;10761;48.532;8.026;2023-07-31T03:33:48;2.33;;;1.55;;
21206;SDS011;10761;48.532;8.026;2023-07-31T03:36:14;4.32;;;1.60;;
21206;SDS011;10761;48.532;8.026;2023-07-31T03:38:40;4.28;;;1.70;;
21206;SDS011;10761;48.532;8.026;2023-07-31T03:41:05;4.53;;;1.67;;
21206;SDS011;10761;48.532;8.026;2023-07-31T03:43:31;2.83;;;1.35;;
21206;SDS011;10761;48.532;8.026;2023-07-31T03:45:59;3.33;;;1.40;;
21206;SDS011;10761;48.532;8.026;2023-07-31T03:48:28;4.15;;;1.80;;
21206;SDS011;10761;48.532;8.026;2023-07-31T03:50:53;4.50;;;1.60;;
21206;SDS011;10761;48.532;8.026;2023-07-31T03:53:19;5.32;;;1.90;;
21206;SDS011;10761;48.532;8.026;2023-07-31T03:55:45;2.72;;;1.40;;
21206;SDS011;10761;48.532;8.026;2023-07-31T03:58:10;5.32;;;1.55;;
21206;SDS011;10761;48.532;8.026;2023-07-31T04:00:36;5.13;;;1.65;;
21206;SDS011;10761;48.532;8.026;2023-07-31T04:03:02;6.18;;;1.77;;
21206;SDS011;10761;48.532;8.026;2023-07-31T04:05:29;3.53;;;1.50;;
21206;SDS011;10761;48.532;8.026;2023-07-31T04:07:56;5.25;;;1.75;;
21206;SDS011;10761;48.532;8.026;2023-07-31T04:10:21;4.20;;;1.67;;
21206;SDS011;10761;48.532;8.026;2023-07-31T04:12:48;4.70;;;1.92;;
21206;SDS011;10761;48.532;8.026;2023-07-31T04:15:13;5.50;;;1.50;;
21206;SDS011;10761;48.532;8.026;2023-07-31T04:17:39;3.20;;;1.52;;
21206;SDS011;10761;48.532;8.026;2023-07-31T04:20:05;3.88;;;1.67;;
21206;SDS011;10761;48.532;8.026;2023-07-31T04:22:30;3.70;;;1.50;;
21206;SDS011;10761;48.532;8.026;2023-07-31T04:24:56;6.85;;;1.70;;
21206;SDS011;10761;48.532;8.026;2023-07-31T04:27:22;4.75;;;1.52;;
21206;SDS011;10761;48.532;8.026;2023-07-31T04:29:47;4.00;;;1.58;;
21206;SDS011;10761;48.532;8.026;2023-07-31T04:32:13;7.30;;;1.92;;
21206;SDS011;10761;48.532;8.026;2023-07-31T04:34:41;7.20;;;1.55;;
21206;SDS011;10761;48.532;8.026;2023-07-31T04:37:07;4.97;;;1.92;;
21206;SDS011;10761;48.532;8.026;2023-07-31T04:39:33;2.60;;;1.40;;
21206;SDS011;10761;48.532;8.026;2023-07-31T04:41:58;4.05;;;1.60;;
21206;SDS011;10761;48.532;8.026;2023-07-31T04:44:24;5.50;;;1.98;;
21206;SDS011;10761;48.532;8.026;2023-07-31T04:46:50;9.07;;;1.75;;
21206;SDS011;10761;48.532;8.026;2023-07-31T04:49:15;5.75;;;1.58;;
21206;SDS011;10761;48.532;8.026;2023-07-31T04:51:41;7.57;;;1.85;;
21206;SDS011;10761;48.532;8.026;2023-07-31T04:54:06;5.20;;;1.60;;
21206;SDS011;10761;48.532;8.026;2023-07-31T04:56:32;5.40;;;2.15;;
21206;SDS011;10761;48.532;8.026;2023-07-31T04:58:57;3.25;;;1.40;;
21206;SDS011;10761;48.532;8.026;2023-07-31T05:01:23;3.72;;;1.60;;
21206;SDS011;10761;48.532;8.026;2023-07-31T05:03:49;4.95;;;1.90;;
21206;SDS011;10761;48.532;8.026;2023-07-31T05:06:14;2.85;;;1.40;;
21206;SDS011;10761;48.532;8.026;2023-07-31T05:08:40;6.05;;;1.90;;
21206;SDS011;10761;48.532;8.026;2023-07-31T05:11:05;6.28;;;1.70;;
21206;SDS011;10761;48.532;8.026;2023-07-31T05:13:31;4.32;;;1.60;;
21206;SDS011;10761;48.532;8.026;2023-07-31T05:15:57;4.45;;;1.50;;
21206;SDS011;10761;48.532;8.026;2023-07-31T05:18:22;3.65;;;1.48;;
21206;SDS011;10761;48.532;8.026;2023-07-31T05:20:48;6.43;;;1.90;;
21206;SDS011;10761;48.532;8.026;2023-07-31T05:23:13;4.47;;;1.90;;
21206;SDS011;10761;48.532;8.026;2023-07-31T05:25:39;7.15;;;1.88;;
21206;SDS011;10761;48.532;8.026;2023-07-31T05:28:05;6.75;;;2.10;;
21206;SDS011;10761;48.532;8.026;2023-07-31T05:30:31;6.45;;;2.10;;
21206;SDS011;10761;48.532;8.026;2023-07-31T05:32:56;5.45;;;1.88;;
21206;SDS011;10761;48.532;8.026;2023-07-31T05:35:22;5.50;;;1.52;;
21206;SDS011;10761;48.532;8.026;2023-07-31T05:37:48;5.82;;;1.85;;
21206;SDS011;10761;48.532;8.026;2023-07-31T05:40:13;5.57;;;1.83;;
21206;SDS011;10761;48.532;8.026;2023-07-31T05:42:39;5.63;;;1.80;;
21206;SDS011;10761;48.532;8.026;2023-07-31T05:45:05;9.40;;;2.22;;
21206;SDS011;10761;48.532;8.026;2023-07-31T05:47:32;3.55;;;1.60;;
21206;SDS011;10761;48.532;8.026;2023-07-31T05:49:57;5.22;;;1.80;;
21206;SDS011;10761;48.532;8.026;2023-07-31T05:52:23;4.38;;;1.60;;
21206;SDS011;10761;48.532;8.026;2023-07-31T05:54:48;5.93;;;1.92;;
21206;SDS011;10761;48.532;8.026;2023-07-31T05:57:14;9.50;;;2.50;;
21206;SDS011;10761;48.532;8.026;2023-07-31T05:59:40;8.13;;;1.73;;
21206;SDS011;10761;48.532;8.026;2023-07-31T06:02:06;5.28;;;2.13;;
21206;SDS011;10761;48.532;8.026;2023-07-31T06:04:32;7.80;;;1.73;;
21206;SDS011;10761;48.532;8.026;2023-07-31T06:06:57;7.03;;;2.03;;
21206;SDS011;10761;48.532;8.026;2023-07-31T06:09:23;6.78;;;1.80;;
21206;SDS011;10761;48.532;8.026;2023-07-31T06:11:48;3.65;;;2.08;;
21206;SDS011;10761;48.532;8.026;2023-07-31T06:14:15;5.80;;;1.90;;
21206;SDS011;10761;48.532;8.026;2023-07-31T06:16:41;6.65;;;1.95;;
21206;SDS011;10761;48.532;8.026;2023-07-31T06:19:06;6.18;;;1.95;;
21206;SDS011;10761;48.532;8.026;2023-07-31T06:21:32;4.05;;;1.90;;
21206;SDS011;10761;48.532;8.026;2023-07-31T06:23:58;8.27;;;1.80;;
21206;SDS011;10761;48.532;8.026;2023-07-31T06:26:24;3.85;;;1.70;;
21206;SDS011;10761;48.532;8.026;2023-07-31T06:28:49;5.13;;;1.95;;
21206;SDS011;10761;48.532;8.026;2023-07-31T06:31:15;5.38;;;1.95;;
21206;SDS011;10761;48.532;8.026;2023-07-31T06:33:43;8.02;;;2.05;;
21206;SDS011;10761;48.532;8.026;2023-07-31T06:36:08;7.25;;;1.92;;
21206;SDS011;10761;48.532;8.026;2023-07-31T06:38:34;4.47;;;1.70;;
21206;SDS011;10761;48.532;8.026;2023-07-31T06:40:59;4.45;;;1.80;;
21206;SDS011;10761;48.532;8.026;2023-07-31T06:43:25;4.45;;;1.60;;
21206;SDS011;10761;48.532;8.026;2023-07-31T06:45:51;3.95;;;1.70;;
21206;SDS011;10761;48.532;8.026;2023-07-31T06:48:16;5.57;;;1.70;;
21206;SDS011;10761;48.532;8.026;2023-07-31T06:50:42;4.70;;;1.98;;
21206;SDS011;10761;48.532;8.026;2023-07-31T06:53:07;4.75;;;1.60;;
21206;SDS011;10761;48.532;8.026;2023-07-31T06:55:33;6.82;;;1.90;;
21206;SDS011;10761;48.532;8.026;2023-07-31T06:57:59;4.40;;;2.03;;
21206;SDS011;10761;48.532;8.026;2023-07-31T07:00:24;6.45;;;1.98;;
21206;SDS011;10761;48.532;8.026;2023-07-31T07:02:50;4.72;;;1.90;;
21206;SDS011;10761;48.532;8.026;2023-07-31T07:05:16;5.40;;;1.70;;
21206;SDS011;10761;48.532;8.026;2023-07-31T07:07:42;5.90;;;1.90;;
21206;SDS011;10761;48.532;8.026;2023-07-31T07:10:08;5.72;;;2.10;;
21206;SDS011;10761;48.532;8.026;2023-07-31T07:12:34;4.78;;;1.77;;
21206;SDS011;10761;48.532;8.026;2023-07-31T07:15:00;5.97;;;1.88;;
21206;SDS011;10761;48.532;8.026;2023-07-31T07:17:27;6.30;;;2.08;;
21206;SDS011;10761;48.532;8.026;2023-07-31T07:19:56;3.70;;;1.58;;
21206;SDS011;10761;48.532;8.026;2023-07-31T07:22:22;6.13;;;1.70;;
21206;SDS011;10761;48.532;8.026;2023-07-31T07:24:47;6.00;;;2.30;;
21206;SDS011;10761;48.532;8.026;2023-07-31T07:27:13;5.75;;;1.80;;
21206;SDS011;10761;48.532;8.026;2023-07-31T07:29:39;6.63;;;2.15;;
21206;SDS011;10761;48.532;8.026;2023-07-31T07:32:05;4.97;;;2.05;;
21206;SDS011;10761;48.532;8.026;2023-07-31T07:34:31;4.35;;;1.90;;
21206;SDS011;10761;48.532;8.026;2023-07-31T07:36:56;6.53;;;2.20;;
21206;SDS011;10761;48.532;8.026;2023-07-31T07:39:22;5.90;;;2.10;;
21206;SDS011;10761;48.532;8.026;2023-07-31T07:41:48;4.63;;;2.13;;
21206;SDS011;10761;48.532;8.026;2023-07-31T07:44:13;4.88;;;1.80;;
21206;SDS011;10761;48.532;8.026;2023-07-31T07:46:39;5.00;;;1.77;;
21206;SDS011;10761;48.532;8.026;2023-07-31T07:49:05;5.90;;;1.92;;
21206;SDS011;10761;48.532;8.026;2023-07-31T07:51:31;4.95;;;1.88;;
21206;SDS011;10761;48.532;8.026;2023-07-31T07:53:59;6.75;;;2.30;;
21206;SDS011;10761;48.532;8.026;2023-07-31T07:56:25;7.00;;;2.40;;
21206;SDS011;10761;48.532;8.026;2023-07-31T07:58:52;6.05;;;2.08;;
21206;SDS011;10761;48.532;8.026;2023-07-31T08:01:18;7.40;;;2.40;;
21206;SDS011;10761;48.532;8.026;2023-07-31T08:03:44;4.78;;;2.10;;
21206;SDS011;10761;48.532;8.026;2023-07-31T08:06:10;6.18;;;2.20;;
21206;SDS011;10761;48.532;8.026;2023-07-31T08:08:36;6.90;;;2.28;;
21206;SDS011;10761;48.532;8.026;2023-07-31T08:11:02;7.00;;;2.05;;
21206;SDS011;10761;48.532;8.026;2023-07-31T08:13:28;6.50;;;2.00;;
21206;SDS011;10761;48.532;8.026;2023-07-31T08:15:53;5.72;;;2.08;;
21206;SDS011;10761;48.532;8.026;2023-07-31T08:18:19;7.40;;;2.22;;
21206;SDS011;10761;48.532;8.026;2023-07-31T08:20:45;5.90;;;2.00;;
21206;SDS011;10761;48.532;8.026;2023-07-31T08:23:10;6.22;;;2.05;;
21206;SDS011;10761;48.532;8.026;2023-07-31T08:25:36;7.28;;;2.10;;
21206;SDS011;10761;48.532;8.026;2023-07-31T08:28:02;6.28;;;1.90;;
21206;SDS011;10761;48.532;8.026;2023-07-31T08:30:28;4.63;;;1.80;;
21206;SDS011;10761;48.532;8.026;2023-07-31T08:32:54;3.92;;;1.95;;
21206;SDS011;10761;48.532;8.026;2023-07-31T08:35:20;4.38;;;2.15;;
21206;SDS011;10761;48.532;8.026;2023-07-31T08:37:45;5.05;;;1.95;;
21206;SDS011;10761;48.532;8.026;2023-07-31T08:40:11;6.70;;;1.95;;
21206;SDS011;10761;48.532;8.026;2023-07-31T08:42:43;3.58;;;1.77;;
21206;SDS011;10761;48.532;8.026;2023-07-31T08:45:11;6.65;;;2.20;;
21206;SDS011;10761;48.532;8.026;2023-07-31T08:47:40;6.88;;;1.92;;
21206;SDS011;10761;48.532;8.026;2023-07-31T08:50:14;4.65;;;2.00;;
21206;SDS011;10761;48.532;8.026;2023-07-31T08:52:41;6.50;;;1.70;;
21206;SDS011;10761;48.532;8.026;2023-07-31T08:55:07;4.22;;;2.10;;
21206;SDS011;10761;48.532;8.026;2023-07-31T08:57:34;5.60;;;2.05;;
21206;SDS011;10761;48.532;8.026;2023-07-31T09:00:02;6.85;;;1.80;;
21206;SDS011;10761;48.532;8.026;2023-07-31T09:02:45;3.90;;;1.77;;
21206;SDS011;10761;48.532;8.026;2023-07-31T09:05:15;3.70;;;1.80;;
21206;SDS011;10761;48.532;8.026;2023-07-31T09:07:41;4.13;;;2.03;;
21206;SDS011;10761;48.532;8.026;2023-07-31T09:10:13;6.85;;;2.45;;
21206;SDS011;10761;48.532;8.026;2023-07-31T09:12:39;5.35;;;2.22;;
21206;SDS011;10761;48.532;8.026;2023-07-31T09:15:05;4.82;;;2.47;;
21206;SDS011;10761;48.532;8.026;2023-07-31T09:17:32;9.75;;;2.33;;
21206;SDS011;10761;48.532;8.026;2023-07-31T09:20:12;6.65;;;2.13;;
21206;SDS011;10761;48.532;8.026;2023-07-31T09:22:46;5.05;;;2.08;;
21206;SDS011;10761;48.532;8.026;2023-07-31T09:25:20;5.68;;;1.85;;
21206;SDS011;10761;48.532;8.026;2023-07-31T09:27:54;5.80;;;1.88;;
21206;SDS011;10761;48.532;8.026;2023-07-31T09:30:24;4.43;;;2.20;;
21206;SDS011;10761;48.532;8.026;2023-07-31T09:32:50;4.07;;;2.13;;
21206;SDS011;10761;48.532;8.026;2023-07-31T09:35:28;4.47;;;1.90;;
21206;SDS011;10761;48.532;8.026;2023-07-31T09:38:03;8.27;;;2.40;;
21206;SDS011;10761;48.532;8.026;2023-07-31T09:40:31;5.32;;;2.25;;
21206;SDS011;10761;48.532;8.026;2023-07-31T09:42:58;5.65;;;2.20;;
21206;SDS011;10761;48.532;8.026;2023-07-31T09:45:28;3.40;;;1.95;;
21206;SDS011;10761;48.532;8.026;2023-07-31T09:47:54;4.90;;;2.10;;
21206;SDS011;10761;48.532;8.026;2023-07-31T09:50:21;8.32;;;2.10;;
21206;SDS011;10761;48.532;8.026;2023-07-31T09:52:52;5.25;;;2.35;;
21206;SDS011;10761;48.532;8.026;2023-07-31T09:55:18;6.13;;;2.33;;
21206;SDS011;10761;48.532;8.026;2023-07-31T09:57:45;5.35;;;2.28;;
21206;SDS011;10761;48.532;8.026;2023-07-31T10:00:13;6.18;;;2.00;;
21206;SDS011;10761;48.532;8.026;2023-07-31T10:02:44;6.32;;;2.10;;
21206;SDS011;10761;48.532;8.026;2023-07-31T10:05:11;6.20;;;2.10;;
21206;SDS011;10761;48.532;8.026;2023-07-31T10:07:38;5.93;;;2.08;;
21206;SDS011;10761;48.532;8.026;2023-07-31T10:10:07;5.43;;;2.20;;
21206;SDS011;10761;48.532;8.026;2023-07-31T10:12:36;5.10;;;2.03;;
21206;SDS011;10761;48.532;8.026;2023-07-31T10:15:02;5.15;;;2.10;;
21206;SDS011;10761;48.532;8.026;2023-07-31T10:17:29;6.65;;;2.40;;
21206;SDS011;10761;48.532;8.026;2023-07-31T10:19:57;5.57;;;2.05;;
21206;SDS011;10761;48.532;8.026;2023-07-31T10:22:28;4.65;;;2.10;;
21206;SDS011;10761;48.532;8.026;2023-07-31T10:24:54;6.65;;;2.33;;
21206;SDS011;10761;48.532;8.026;2023-07-31T10:27:22;11.38;;;2.38;;
21206;SDS011;10761;48.532;8.026;2023-07-31T10:29:48;4.30;;;1.88;;
21206;SDS011;10761;48.532;8.026;2023-07-31T10:32:15;5.68;;;2.35;;
21206;SDS011;10761;48.532;8.026;2023-07-31T10:34:42;5.22;;;2.38;;
21206;SDS011;10761;48.532;8.026;2023-07-31T10:37:24;6.10;;;2.15;;
21206;SDS011;10761;48.532;8.026;2023-07-31T10:40:05;7.60;;;2.33;;
21206;SDS011;10761;48.532;8.026;2023-07-31T10:42:38;8.15;;;2.28;;
21206;SDS011;10761;48.532;8.026;2023-07-31T10:45:10;9.07;;;2.33;;
21206;SDS011;10761;48.532;8.026;2023-07-31T10:47:36;7.28;;;2.30;;
21206;SDS011;10761;48.532;8.026;2023-07-31T10:50:12;6.40;;;2.38;;
21206;SDS011;10761;48.532;8.026;2023-07-31T10:52:38;6.07;;;2.28;;
21206;SDS011;10761;48.532;8.026;2023-07-31T11:00:32;5.57;;;1.90;;
21206;SDS011;10761;48.532;8.026;2023-07-31T11:02:58;5.68;;;2.10;;
21206;SDS011;10761;48.532;8.026;2023-07-31T11:05:40;5.78;;;2.00;;
21206;SDS011;10761;48.532;8.026;2023-07-31T11:13:47;9.18;;;2.58;;
21206;SDS011;10761;48.532;8.026;2023-07-31T11:16:15;5.40;;;2.38;;
21206;SDS011;10761;48.532;8.026;2023-07-31T11:18:42;5.57;;;2.15;;
21206;SDS011;10761;48.532;8.026;2023-07-31T11:21:12;4.47;;;2.10;;
21206;SDS011;10761;48.532;8.026;2023-07-31T11:23:45;5.35;;;2.50;;
21206;SDS011;10761;48.532;8.026;2023-07-31T11:26:12;6.30;;;2.30;;
21206;SDS011;10761;48.532;8.026;2023-07-31T11:28:39;6.63;;;2.60;;
21206;SDS011;10761;48.532;8.026;2023-07-31T11:31:08;8.70;;;2.70;;
21206;SDS011;10761;48.532;8.026;2023-07-31T11:33:34;7.13;;;2.08;;
21206;SDS011;10761;48.532;8.026;2023-07-31T11:36:00;4.43;;;2.40;;
21206;SDS011;10761;48.532;8.026;2023-07-31T11:38:29;2.88;;;2.08;;
21206;SDS011;10761;48.532;8.026;2023-07-31T11:40:58;3.72;;;1.90;;
21206;SDS011;10761;48.532;8.026;2023-07-31T11:43:24;4.47;;;2.30;;
21206;SDS011;10761;48.532;8.026;2023-07-31T11:45:51;7.28;;;2.63;;
21206;SDS011;10761;48.532;8.026;2023-07-31T11:48:22;4.53;;;2.35;;
21206;SDS011;10761;48.532;8.026;2023-07-31T11:51:00;4.93;;;2.10;;
21206;SDS011;10761;48.532;8.026;2023-07-31T11:56:00;4.15;;;2.22;;
21206;SDS011;10761;48.532;8.026;2023-07-31T11:58:27;5.35;;;2.08;;
21206;SDS011;10761;48.532;8.026;2023-07-31T12:00:54;6.97;;;2.25;;
21206;SDS011;10761;48.532;8.026;2023-07-31T12:03:20;6.55;;;2.50;;
21206;SDS011;10761;48.532;8.026;2023-07-31T12:05:47;6.88;;;2.65;;
21206;SDS011;10761;48.532;8.026;2023-07-31T12:08:13;5.18;;;2.10;;
21206;SDS011;10761;48.532;8.026;2023-07-31T12:10:39;5.53;;;2.38;;
21206;SDS011;10761;48.532;8.026;2023-07-31T12:13:07;5.65;;;2.60;;
21206;SDS011;10761;48.532;8.026;2023-07-31T12:15:42;5.65;;;2.50;;
21206;SDS011;10761;48.532;8.026;2023-07-31T12:18:12;6.80;;;2.80;;
21206;SDS011;10761;48.532;8.026;2023-07-31T12:20:42;5.63;;;2.17;;
21206;SDS011;10761;48.532;8.026;2023-07-31T12:23:13;4.60;;;2.40;;
21206;SDS011;10761;48.532;8.026;2023-07-31T12:26:08;7.07;;;2.35;;
21206;SDS011;10761;48.532;8.026;2023-07-31T12:28:40;7.82;;;2.45;;
21206;SDS011;10761;48.532;8.026;2023-07-31T12:31:07;5.32;;;2.03;;
21206;SDS011;10761;48.532;8.026;2023-07-31T12:33:37;5.10;;;2.50;;
21206;SDS011;10761;48.532;8.026;2023-07-31T12:36:09;8.13;;;2.50;;
21206;SDS011;10761;48.532;8.026;2023-07-31T12:38:36;5.78;;;1.98;;
21206;SDS011;10761;48.532;8.026;2023-07-31T12:41:01;6.78;;;2.55;;
21206;SDS011;10761;48.532;8.026;2023-07-31T12:43:27;5.15;;;2.45;;
21206;SDS011;10761;48.532;8.026;2023-07-31T12:45:56;5.63;;;2.40;;
21206;SDS011;10761;48.532;8.026;2023-07-31T12:48:21;3.83;;;2.25;;
21206;SDS011;10761;48.532;8.026;2023-07-31T12:50:47;5.88;;;2.20;;
21206;SDS011;10761;48.532;8.026;2023-07-31T12:53:13;6.95;;;2.40;;
21206;SDS011;10761;48.532;8.026;2023-07-31T12:55:39;5.55;;;2.47;;
21206;SDS011;10761;48.532;8.026;2023-07-31T12:58:05;7.00;;;2.05;;
21206;SDS011;10761;48.532;8.026;2023-07-31T13:00:30;5.20;;;2.60;;
21206;SDS011;10761;48.532;8.026;2023-07-31T13:02:56;3.67;;;2.03;;
21206;SDS011;10761;48.532;8.026;2023-07-31T13:05:22;6.80;;;2.20;;
21206;SDS011;10761;48.532;8.026;2023-07-31T13:07:48;6.55;;;2.10;;
21206;SDS011;10761;48.532;8.026;2023-07-31T13:10:13;7.82;;;2.35;;
21206;SDS011;10761;48.532;8.026;2023-07-31T13:12:39;5.25;;;2.20;;
21206;SDS011;10761;48.532;8.026;2023-07-31T13:15:05;5.53;;;2.20;;
21206;SDS011;10761;48.532;8.026;2023-07-31T13:17:31;7.20;;;2.30;;
21206;SDS011;10761;48.532;8.026;2023-07-31T13:19:57;4.82;;;2.53;;
21206;SDS011;10761;48.532;8.026;2023-07-31T13:22:24;4.20;;;2.10;;
21206;SDS011;10761;48.532;8.026;2023-07-31T13:24:50;6.90;;;2.45;;
21206;SDS011;10761;48.532;8.026;2023-07-31T13:27:15;6.88;;;2.38;;
21206;SDS011;10761;48.532;8.026;2023-07-31T13:29:46;5.10;;;2.63;;
21206;SDS011;10761;48.532;8.026;2023-07-31T13:32:15;5.40;;;2.75;;
21206;SDS011;10761;48.532;8.026;2023-07-31T13:34:42;7.72;;;2.75;;
21206;SDS011;10761;48.532;8.026;2023-07-31T13:37:08;5.20;;;2.30;;
21206;SDS011;10761;48.532;8.026;2023-07-31T13:39:34;6.70;;;2.60;;
21206;SDS011;10761;48.532;8.026;2023-07-31T13:41:59;5.65;;;2.47;;
21206;SDS011;10761;48.532;8.026;2023-07-31T13:44:26;9.65;;;2.60;;
21206;SDS011;10761;48.532;8.026;2023-07-31T13:46:51;5.30;;;2.42;;
21206;SDS011;10761;48.532;8.026;2023-07-31T13:49:17;7.70;;;2.53;;
21206;SDS011;10761;48.532;8.026;2023-07-31T13:51:42;2.80;;;2.00;;
21206;SDS011;10761;48.532;8.026;2023-07-31T13:54:08;7.53;;;2.15;;
21206;SDS011;10761;48.532;8.026;2023-07-31T13:56:34;6.03;;;2.47;;
21206;SDS011;10761;48.532;8.026;2023-07-31T13:58:59;6.10;;;3.03;;
21206;SDS011;10761;48.532;8.026;2023-07-31T14:01:26;7.63;;;2.60;;
21206;SDS011;10761;48.532;8.026;2023-07-31T14:03:52;4.97;;;2.55;;
21206;SDS011;10761;48.532;8.026;2023-07-31T14:06:17;6.03;;;2.55;;
21206;SDS011;10761;48.532;8.026;2023-07-31T14:08:44;5.03;;;2.58;;
21206;SDS011;10761;48.532;8.026;2023-07-31T14:11:09;6.53;;;2.45;;
21206;SDS011;10761;48.532;8.026;2023-07-31T14:13:35;5.47;;;2.58;;
21206;SDS011;10761;48.532;8.026;2023-07-31T14:16:00;5.97;;;2.75;;
21206;SDS011;10761;48.532;8.026;2023-07-31T14:18:26;5.13;;;2.70;;
21206;SDS011;10761;48.532;8.026;2023-07-31T14:20:51;7.82;;;2.35;;
21206;SDS011;10761;48.532;8.026;2023-07-31T14:23:17;4.85;;;2.40;;
21206;SDS011;10761;48.532;8.026;2023-07-31T14:25:44;5.80;;;2.42;;
21206;SDS011;10761;48.532;8.026;2023-07-31T14:28:10;9.57;;;2.50;;
21206;SDS011;10761;48.532;8.026;2023-07-31T14:30:36;6.35;;;2.60;;
21206;SDS011;10761;48.532;8.026;2023-07-31T14:33:02;8.32;;;2.55;;
21206;SDS011;10761;48.532;8.026;2023-07-31T14:35:27;5.30;;;2.78;;
21206;SDS011;10761;48.532;8.026;2023-07-31T14:37:53;5.53;;;2.70;;
21206;SDS011;10761;48.532;8.026;2023-07-31T14:40:19;6.28;;;2.70;;
21206;SDS011;10761;48.532;8.026;2023-07-31T14:42:44;5.28;;;2.58;;
21206;SDS011;10761;48.532;8.026;2023-07-31T14:45:10;4.57;;;2.20;;
21206;SDS011;10761;48.532;8.026;2023-07-31T14:47:36;9.80;;;2.67;;
21206;SDS011;10761;48.532;8.026;2023-07-31T14:50:02;6.43;;;2.47;;
21206;SDS011;10761;48.532;8.026;2023-07-31T14:52:28;8.02;;;2.63;;
21206;SDS011;10761;48.532;8.026;2023-07-31T14:54:54;4.40;;;2.42;;
21206;SDS011;10761;48.532;8.026;2023-07-31T14:57:19;7.47;;;2.67;;
21206;SDS011;10761;48.532;8.026;2023-07-31T14:59:45;4.72;;;2.35;;
21206;SDS011;10761;48.532;8.026;2023-07-31T15:02:11;5.95;;;2.63;;